Hauptseite
METAR-TAF:

METAR-TAF

Flughäfen :

Flughafen Kuwait

Kuwait-Stadt, Kuwait

Breite: 29-13N, Länge: 047-59E, Höhe: 55 m

Beobachtung

Neuester Wetterbericht von vor 19 Minuten, um 12:00 UTC
Wind 6 kt aus Nord
Temperatur 19°C
Luftfeuchtigkeit 60%
Luftdruck 1022 hPa
Sichtweite: 6000 m

METAR: OKBK 191200Z 35006KT 6000 NSC 19/11 Q1022 NOSIG

Zeit: 15:19 (12:19 UTC)

Prognose

Neuester Wetterbericht von vor 1 Stunde und 34 Minuten, um 10:45 UTC
Gültige Prognose vom 19 um 12 UTC bis 20 um 18 UTC
Wind 10 kt aus Nord/Nordwest
Sichtweite: 7000 m
Himmel klar
Zeitweise
vom 19 um 21 UTC bis 20 um 05 UTC
Wind 3 kt aus unterschiedlichen Richtungen
Sichtweite: 3000 m
feuchter Dunst

TAF: OKBK 191045Z 1912/2018 34010KT 7000 SKC TEMPO 1921/2005 VRB03KT 3000 BR

Wetterbeobachtungen und Prognosen von mehr als 4000 Flughäfen (METAR und TAF Bericht).

Die verfügbaren Stationen werden durch gelbe und rote Markierungen auf der Karte dargestellt.

Führen Sie die Maus auf sie, um den Namen der Station zu sehen.

Darauf klicken, um die Beobachtung von Wetterbeobachtungen und Prognosen zu sehen.

Um die Karte zu ändern : klicken Sie auf den grünen Tasten mit einem schwarzen Kreuz Zum Vergrößern, auf den grünen Button mit einem Gedankenstrich zu verkleinern, oder auf die grünen Pfeile für benachbarte Karten.


METAR-TAF: